sensor_id;sensor_type;location;lat;lon;timestamp;pressure;altitude;pressure_sealevel;temperature;humidity
75604;BME280;64187;51.010;13.792;2023-03-01T00:04:26;101675.25;;;-1.57;74.48
75604;BME280;64187;51.010;13.792;2023-03-01T00:09:26;101677.03;;;-2.32;76.44
75604;BME280;64187;51.010;13.792;2023-03-01T00:14:25;101674.59;;;-1.91;74.59
75604;BME280;64187;51.010;13.792;2023-03-01T00:19:24;101671.09;;;-2.24;75.88
75604;BME280;64187;51.010;13.792;2023-03-01T00:24:23;101672.66;;;-1.89;73.86
75604;BME280;64187;51.010;13.792;2023-03-01T00:29:23;101668.41;;;-2.56;75.82
75604;BME280;64187;51.010;13.792;2023-03-01T00:34:22;101667.00;;;-2.61;76.35
75604;BME280;64187;51.010;13.792;2023-03-01T00:39:21;101665.19;;;-2.71;77.49
75604;BME280;64187;51.010;13.792;2023-03-01T00:44:20;101658.22;;;-2.72;77.49
75604;BME280;64187;51.010;13.792;2023-03-01T00:49:20;101650.22;;;-2.61;77.03
75604;BME280;64187;51.010;13.792;2023-03-01T00:54:20;101640.72;;;-2.64;76.96
75604;BME280;64187;51.010;13.792;2023-03-01T00:59:19;101643.88;;;-2.81;77.47
75604;BME280;64187;51.010;13.792;2023-03-01T01:04:18;101650.63;;;-2.77;77.17
75604;BME280;64187;51.010;13.792;2023-03-01T01:09:17;101647.25;;;-3.01;78.39
75604;BME280;64187;51.010;13.792;2023-03-01T01:14:17;101647.13;;;-2.89;77.53
75604;BME280;64187;51.010;13.792;2023-03-01T01:19:17;101646.00;;;-2.64;76.02
75604;BME280;64187;51.010;13.792;2023-03-01T01:24:16;101639.22;;;-3.00;77.91
75604;BME280;64187;51.010;13.792;2023-03-01T01:29:16;101630.53;;;-3.13;77.75
75604;BME280;64187;51.010;13.792;2023-03-01T01:34:19;101628.72;;;-3.24;78.59
75604;BME280;64187;51.010;13.792;2023-03-01T01:39:18;101626.56;;;-3.30;78.42
75604;BME280;64187;51.010;13.792;2023-03-01T01:44:19;101615.00;;;-3.40;79.16
75604;BME280;64187;51.010;13.792;2023-03-01T01:49:38;101623.66;;;-3.16;77.42
75604;BME280;64187;51.010;13.792;2023-03-01T01:59:43;101631.50;;;-3.37;78.70
75604;BME280;64187;51.010;13.792;2023-03-01T02:04:44;101624.75;;;-3.18;77.23
75604;BME280;64187;51.010;13.792;2023-03-01T02:09:47;101610.19;;;-2.90;76.09
75604;BME280;64187;51.010;13.792;2023-03-01T02:14:46;101613.69;;;-3.23;77.22
75604;BME280;64187;51.010;13.792;2023-03-01T02:25:28;101597.56;;;-3.54;77.92
75604;BME280;64187;51.010;13.792;2023-03-01T02:30:30;101576.44;;;-2.88;75.30
75604;BME280;64187;51.010;13.792;2023-03-01T02:35:34;101587.44;;;-3.04;74.56
75604;BME280;64187;51.010;13.792;2023-03-01T02:40:36;101585.16;;;-3.09;75.07
75604;BME280;64187;51.010;13.792;2023-03-01T02:45:36;101587.44;;;-3.60;77.89
75604;BME280;64187;51.010;13.792;2023-03-01T02:55:43;101576.38;;;-3.32;76.93
75604;BME280;64187;51.010;13.792;2023-03-01T03:00:43;101577.44;;;-3.68;77.66
75604;BME280;64187;51.010;13.792;2023-03-01T03:05:47;101573.00;;;-3.79;78.29
75604;BME280;64187;51.010;13.792;2023-03-01T03:10:47;101559.28;;;-3.73;77.71
75604;BME280;64187;51.010;13.792;2023-03-01T03:15:46;101563.53;;;-3.48;76.78
75604;BME280;64187;51.010;13.792;2023-03-01T03:20:45;101566.75;;;-3.55;77.51
75604;BME280;64187;51.010;13.792;2023-03-01T03:25:44;101562.19;;;-3.53;77.74
75604;BME280;64187;51.010;13.792;2023-03-01T03:30:43;101556.75;;;-3.85;77.71
75604;BME280;64187;51.010;13.792;2023-03-01T03:35:48;101553.84;;;-3.94;78.51
75604;BME280;64187;51.010;13.792;2023-03-01T03:40:49;101549.88;;;-3.88;78.04
75604;BME280;64187;51.010;13.792;2023-03-01T03:45:50;101555.59;;;-3.70;76.90
75604;BME280;64187;51.010;13.792;2023-03-01T03:50:51;101552.41;;;-3.86;77.75
75604;BME280;64187;51.010;13.792;2023-03-01T03:55:52;101549.06;;;-3.77;76.21
75604;BME280;64187;51.010;13.792;2023-03-01T04:00:53;101554.72;;;-3.71;76.13
75604;BME280;64187;51.010;13.792;2023-03-01T04:05:52;101558.09;;;-3.80;76.00
75604;BME280;64187;51.010;13.792;2023-03-01T04:10:56;101567.63;;;-4.13;78.18
75604;BME280;64187;51.010;13.792;2023-03-01T04:15:55;101562.66;;;-3.48;75.01
75604;BME280;64187;51.010;13.792;2023-03-01T04:20:54;101561.88;;;-3.95;77.02
75604;BME280;64187;51.010;13.792;2023-03-01T04:25:56;101556.38;;;-3.92;77.15
75604;BME280;64187;51.010;13.792;2023-03-01T04:30:57;101553.13;;;-3.96;76.98
75604;BME280;64187;51.010;13.792;2023-03-01T04:35:56;101544.72;;;-3.90;76.28
75604;BME280;64187;51.010;13.792;2023-03-01T04:40:56;101552.31;;;-4.31;77.50
75604;BME280;64187;51.010;13.792;2023-03-01T04:46:00;101568.25;;;-3.98;76.69
75604;BME280;64187;51.010;13.792;2023-03-01T04:51:01;101556.16;;;-3.78;75.87
75604;BME280;64187;51.010;13.792;2023-03-01T04:56:00;101555.06;;;-3.86;75.02
75604;BME280;64187;51.010;13.792;2023-03-01T05:00:59;101556.63;;;-4.42;77.49
75604;BME280;64187;51.010;13.792;2023-03-01T05:05:58;101562.25;;;-4.35;76.85
75604;BME280;64187;51.010;13.792;2023-03-01T05:10:58;101566.38;;;-4.55;77.57
75604;BME280;64187;51.010;13.792;2023-03-01T05:15:59;101556.84;;;-4.69;78.48
75604;BME280;64187;51.010;13.792;2023-03-01T05:21:11;101546.25;;;-4.09;76.25
75604;BME280;64187;51.010;13.792;2023-03-01T05:26:10;101549.09;;;-4.24;76.02
75604;BME280;64187;51.010;13.792;2023-03-01T05:31:31;101541.00;;;2.59;89.66
75604;BME280;64187;51.010;13.792;2023-03-01T05:36:30;101525.47;;;4.28;59.82
75604;BME280;64187;51.010;13.792;2023-03-01T05:41:29;101522.16;;;4.66;54.39
75604;BME280;64187;51.010;13.792;2023-03-01T05:46:29;101536.19;;;-0.36;58.61
75604;BME280;64187;51.010;13.792;2023-03-01T05:51:28;101542.06;;;-1.93;64.59
75604;BME280;64187;51.010;13.792;2023-03-01T05:56:27;101544.28;;;-2.51;67.36
75604;BME280;64187;51.010;13.792;2023-03-01T06:01:28;101545.56;;;-2.67;67.47
75604;BME280;64187;51.010;13.792;2023-03-01T06:06:38;101555.19;;;-3.43;70.40
75604;BME280;64187;51.010;13.792;2023-03-01T06:11:37;101551.97;;;-3.47;71.65
75604;BME280;64187;51.010;13.792;2023-03-01T06:16:36;101554.25;;;-3.64;73.07
75604;BME280;64187;51.010;13.792;2023-03-01T06:21:35;101553.34;;;-2.97;71.30
75604;BME280;64187;51.010;13.792;2023-03-01T06:26:34;101560.50;;;-3.20;71.68
75604;BME280;64187;51.010;13.792;2023-03-01T06:31:32;101564.53;;;-2.83;70.63
75604;BME280;64187;51.010;13.792;2023-03-01T06:36:32;101562.72;;;-2.82;70.25
75604;BME280;64187;51.010;13.792;2023-03-01T06:41:31;101574.31;;;-3.28;72.46
75604;BME280;64187;51.010;13.792;2023-03-01T06:46:31;101573.50;;;-3.17;72.74
75604;BME280;64187;51.010;13.792;2023-03-01T06:51:30;101570.47;;;-3.24;72.86
75604;BME280;64187;51.010;13.792;2023-03-01T06:56:30;101567.34;;;-2.63;71.35
75604;BME280;64187;51.010;13.792;2023-03-01T07:01:30;101566.72;;;-2.55;71.72
75604;BME280;64187;51.010;13.792;2023-03-01T07:06:29;101564.03;;;-2.44;71.81
75604;BME280;64187;51.010;13.792;2023-03-01T07:11:29;101557.72;;;-1.69;69.44
75604;BME280;64187;51.010;13.792;2023-03-01T07:16:28;101553.13;;;-1.57;68.88
75604;BME280;64187;51.010;13.792;2023-03-01T07:21:27;101557.53;;;-1.46;67.06
75604;BME280;64187;51.010;13.792;2023-03-01T07:26:26;101553.13;;;-1.26;67.26
75604;BME280;64187;51.010;13.792;2023-03-01T07:31:25;101547.19;;;-0.99;65.75
75604;BME280;64187;51.010;13.792;2023-03-01T07:36:26;101554.03;;;-1.06;66.17
75604;BME280;64187;51.010;13.792;2023-03-01T07:41:25;101547.22;;;-1.30;66.61
75604;BME280;64187;51.010;13.792;2023-03-01T07:46:24;101545.53;;;-0.91;66.24
75604;BME280;64187;51.010;13.792;2023-03-01T07:51:23;101535.16;;;-0.94;65.55
75604;BME280;64187;51.010;13.792;2023-03-01T07:56:22;101529.19;;;-0.76;64.80
75604;BME280;64187;51.010;13.792;2023-03-01T08:01:21;101532.38;;;-0.24;64.20
75604;BME280;64187;51.010;13.792;2023-03-01T08:06:20;101521.63;;;-0.61;64.56
75604;BME280;64187;51.010;13.792;2023-03-01T08:11:19;101503.13;;;-0.34;64.90
75604;BME280;64187;51.010;13.792;2023-03-01T08:16:18;101493.03;;;-0.40;65.27
75604;BME280;64187;51.010;13.792;2023-03-01T08:21:17;101500.66;;;0.12;63.65
75604;BME280;64187;51.010;13.792;2023-03-01T08:26:18;101497.94;;;0.21;62.82
75604;BME280;64187;51.010;13.792;2023-03-01T08:31:23;101501.69;;;0.38;63.45
75604;BME280;64187;51.010;13.792;2023-03-01T08:36:30;101499.41;;;0.71;61.64
75604;BME280;64187;51.010;13.792;2023-03-01T08:41:30;101492.84;;;0.38;62.96
75604;BME280;64187;51.010;13.792;2023-03-01T08:46:36;101496.69;;;0.26;63.05
75604;BME280;64187;51.010;13.792;2023-03-01T08:51:35;101495.22;;;0.04;63.52
75604;BME280;64187;51.010;13.792;2023-03-01T08:56:35;101484.44;;;0.88;61.64
75604;BME280;64187;51.010;13.792;2023-03-01T09:01:34;101490.41;;;1.18;60.77
75604;BME280;64187;51.010;13.792;2023-03-01T09:06:33;101482.63;;;1.60;59.55
75604;BME280;64187;51.010;13.792;2023-03-01T09:11:32;101482.47;;;1.62;59.90
75604;BME280;64187;51.010;13.792;2023-03-01T09:16:31;101469.81;;;1.46;60.19
75604;BME280;64187;51.010;13.792;2023-03-01T09:21:34;101455.41;;;1.83;60.66
75604;BME280;64187;51.010;13.792;2023-03-01T09:26:38;101449.34;;;1.72;60.20
75604;BME280;64187;51.010;13.792;2023-03-01T09:31:37;101445.72;;;2.08;59.56
75604;BME280;64187;51.010;13.792;2023-03-01T09:36:36;101438.75;;;2.66;57.99
75604;BME280;64187;51.010;13.792;2023-03-01T09:41:59;101444.31;;;2.72;57.21
75604;BME280;64187;51.010;13.792;2023-03-01T09:47:01;101439.88;;;3.06;57.14
75604;BME280;64187;51.010;13.792;2023-03-01T09:52:11;101441.00;;;2.95;57.23
75604;BME280;64187;51.010;13.792;2023-03-01T09:57:24;101441.00;;;2.95;57.13
75604;BME280;64187;51.010;13.792;2023-03-01T10:02:39;101443.41;;;2.55;59.77
75604;BME280;64187;51.010;13.792;2023-03-01T10:12:45;101436.03;;;3.16;57.68
75604;BME280;64187;51.010;13.792;2023-03-01T10:17:57;101437.69;;;3.01;58.24
75604;BME280;64187;51.010;13.792;2023-03-01T10:22:59;101429.34;;;3.37;56.32
75604;BME280;64187;51.010;13.792;2023-03-01T10:28:16;101437.84;;;2.91;57.24
75604;BME280;64187;51.010;13.792;2023-03-01T10:33:32;101430.03;;;3.31;56.90
75604;BME280;64187;51.010;13.792;2023-03-01T10:38:53;101424.00;;;3.53;56.68
75604;BME280;64187;51.010;13.792;2023-03-01T10:43:57;101417.41;;;3.88;56.33
75604;BME280;64187;51.010;13.792;2023-03-01T10:49:21;101404.59;;;4.15;54.38
75604;BME280;64187;51.010;13.792;2023-03-01T10:54:31;101394.94;;;3.98;54.64
75604;BME280;64187;51.010;13.792;2023-03-01T10:59:33;101386.78;;;4.30;53.17
75604;BME280;64187;51.010;13.792;2023-03-01T11:04:32;101382.59;;;4.28;52.73
75604;BME280;64187;51.010;13.792;2023-03-01T11:09:33;101371.69;;;4.61;51.96
75604;BME280;64187;51.010;13.792;2023-03-01T11:14:46;101368.91;;;4.77;52.31
75604;BME280;64187;51.010;13.792;2023-03-01T11:25:11;101363.91;;;5.35;47.95
75604;BME280;64187;51.010;13.792;2023-03-01T11:30:24;101359.94;;;5.60;47.88
75604;BME280;64187;51.010;13.792;2023-03-01T11:35:27;101360.13;;;5.74;47.51
75604;BME280;64187;51.010;13.792;2023-03-01T11:40:28;101360.78;;;5.76;47.18
75604;BME280;64187;51.010;13.792;2023-03-01T11:45:41;101363.56;;;5.53;47.93
75604;BME280;64187;51.010;13.792;2023-03-01T11:50:46;101363.94;;;5.65;46.10
75604;BME280;64187;51.010;13.792;2023-03-01T12:01:21;101351.63;;;5.70;44.61
75604;BME280;64187;51.010;13.792;2023-03-01T12:22:57;101322.63;;;5.80;46.43
75604;BME280;64187;51.010;13.792;2023-03-01T12:33:33;101316.72;;;6.00;47.03
75604;BME280;64187;51.010;13.792;2023-03-01T12:49:40;101302.59;;;5.83;46.64
75604;BME280;64187;51.010;13.792;2023-03-01T12:54:41;101296.25;;;5.69;46.79
75604;BME280;64187;51.010;13.792;2023-03-01T12:59:50;101288.81;;;5.71;49.16
75604;BME280;64187;51.010;13.792;2023-03-01T13:15:30;101278.44;;;5.83;48.40
75604;BME280;64187;51.010;13.792;2023-03-01T13:30:58;101280.81;;;5.93;47.60
75604;BME280;64187;51.010;13.792;2023-03-01T13:35:58;101282.97;;;5.82;45.56
75604;BME280;64187;51.010;13.792;2023-03-01T13:40:58;101264.00;;;6.20;45.33
75604;BME280;64187;51.010;13.792;2023-03-01T13:45:58;101258.25;;;6.02;44.46
75604;BME280;64187;51.010;13.792;2023-03-01T13:51:00;101266.03;;;5.97;44.84
75604;BME280;64187;51.010;13.792;2023-03-01T13:56:21;101269.09;;;5.79;44.77
75604;BME280;64187;51.010;13.792;2023-03-01T14:01:31;101264.56;;;5.79;44.51
75604;BME280;64187;51.010;13.792;2023-03-01T14:06:33;101251.25;;;5.93;44.93
75604;BME280;64187;51.010;13.792;2023-03-01T14:16:59;101251.25;;;6.08;44.85
75604;BME280;64187;51.010;13.792;2023-03-01T14:27:02;101232.84;;;5.90;43.88
75604;BME280;64187;51.010;13.792;2023-03-01T14:32:18;101226.41;;;5.69;45.46
75604;BME280;64187;51.010;13.792;2023-03-01T14:37:19;101228.78;;;5.94;45.07
75604;BME280;64187;51.010;13.792;2023-03-01T14:42:20;101229.25;;;5.68;43.41
75604;BME280;64187;51.010;13.792;2023-03-01T14:47:31;101223.44;;;5.64;45.29
75604;BME280;64187;51.010;13.792;2023-03-01T14:52:39;101218.09;;;5.49;45.97
75604;BME280;64187;51.010;13.792;2023-03-01T14:57:43;101206.75;;;5.54;46.83
75604;BME280;64187;51.010;13.792;2023-03-01T15:02:41;101215.69;;;5.39;47.62
75604;BME280;64187;51.010;13.792;2023-03-01T15:07:43;101204.66;;;5.49;47.40
75604;BME280;64187;51.010;13.792;2023-03-01T15:12:47;101217.97;;;5.57;47.59
75604;BME280;64187;51.010;13.792;2023-03-01T15:17:52;101202.69;;;5.58;47.75
75604;BME280;64187;51.010;13.792;2023-03-01T15:22:54;101205.28;;;5.51;48.71
75604;BME280;64187;51.010;13.792;2023-03-01T15:27:55;101200.66;;;5.60;48.15
75604;BME280;64187;51.010;13.792;2023-03-01T15:38:28;101198.28;;;5.35;48.81
75604;BME280;64187;51.010;13.792;2023-03-01T15:48:36;101186.63;;;5.28;49.19
75604;BME280;64187;51.010;13.792;2023-03-01T15:53:35;101192.09;;;5.20;49.13
75604;BME280;64187;51.010;13.792;2023-03-01T15:58:43;101189.31;;;5.13;49.18
75604;BME280;64187;51.010;13.792;2023-03-01T16:03:44;101178.13;;;5.10;49.15
75604;BME280;64187;51.010;13.792;2023-03-01T16:08:43;101178.94;;;5.10;49.24
75604;BME280;64187;51.010;13.792;2023-03-01T16:13:42;101174.94;;;4.91;49.68
75604;BME280;64187;51.010;13.792;2023-03-01T16:18:45;101183.25;;;4.82;50.43
75604;BME280;64187;51.010;13.792;2023-03-01T16:23:45;101194.47;;;4.85;49.73
75604;BME280;64187;51.010;13.792;2023-03-01T16:28:45;101199.84;;;4.85;49.98
75604;BME280;64187;51.010;13.792;2023-03-01T16:33:44;101199.03;;;4.62;50.99
75604;BME280;64187;51.010;13.792;2023-03-01T16:38:47;101199.88;;;4.47;52.58
75604;BME280;64187;51.010;13.792;2023-03-01T16:43:49;101199.00;;;4.47;52.06
75604;BME280;64187;51.010;13.792;2023-03-01T16:48:48;101198.31;;;4.30;53.64
75604;BME280;64187;51.010;13.792;2023-03-01T16:53:48;101195.97;;;4.27;54.09
75604;BME280;64187;51.010;13.792;2023-03-01T16:58:47;101193.38;;;4.19;54.45
75604;BME280;64187;51.010;13.792;2023-03-01T17:03:47;101191.44;;;3.81;55.57
75604;BME280;64187;51.010;13.792;2023-03-01T17:08:47;101198.72;;;3.64;56.09
75604;BME280;64187;51.010;13.792;2023-03-01T17:13:47;101203.50;;;3.46;56.46
75604;BME280;64187;51.010;13.792;2023-03-01T17:18:47;101203.38;;;6.89;77.77
75604;BME280;64187;51.010;13.792;2023-03-01T17:23:46;101198.84;;;5.82;52.53
75604;BME280;64187;51.010;13.792;2023-03-01T17:28:45;101210.72;;;4.69;54.60
75604;BME280;64187;51.010;13.792;2023-03-01T17:33:49;101214.75;;;4.04;56.18
75604;BME280;64187;51.010;13.792;2023-03-01T17:38:49;101222.59;;;3.43;58.35
75604;BME280;64187;51.010;13.792;2023-03-01T17:43:48;101233.00;;;3.30;59.31
75604;BME280;64187;51.010;13.792;2023-03-01T17:48:47;101224.75;;;2.75;61.44
75604;BME280;64187;51.010;13.792;2023-03-01T17:53:47;101227.69;;;3.21;59.25
75604;BME280;64187;51.010;13.792;2023-03-01T17:58:46;101226.25;;;2.86;60.45
75604;BME280;64187;51.010;13.792;2023-03-01T18:03:45;101217.53;;;2.92;60.23
75604;BME280;64187;51.010;13.792;2023-03-01T18:08:45;101228.13;;;2.61;61.36
75604;BME280;64187;51.010;13.792;2023-03-01T18:13:45;101228.88;;;3.02;60.25
75604;BME280;64187;51.010;13.792;2023-03-01T18:18:45;101233.75;;;2.83;60.90
75604;BME280;64187;51.010;13.792;2023-03-01T18:23:44;101219.88;;;2.87;61.30
75604;BME280;64187;51.010;13.792;2023-03-01T18:28:43;101225.59;;;2.76;61.25
75604;BME280;64187;51.010;13.792;2023-03-01T18:33:46;101211.25;;;2.44;62.51
75604;BME280;64187;51.010;13.792;2023-03-01T18:38:45;101209.16;;;1.81;64.79
75604;BME280;64187;51.010;13.792;2023-03-01T18:43:44;101217.44;;;2.61;62.69
75604;BME280;64187;51.010;13.792;2023-03-01T18:48:43;101220.91;;;2.53;62.18
75604;BME280;64187;51.010;13.792;2023-03-01T18:53:42;101223.09;;;2.66;62.29
75604;BME280;64187;51.010;13.792;2023-03-01T18:58:42;101219.25;;;2.11;63.51
75604;BME280;64187;51.010;13.792;2023-03-01T19:03:41;101217.88;;;2.07;63.09
75604;BME280;64187;51.010;13.792;2023-03-01T19:08:41;101218.38;;;1.94;64.98
75604;BME280;64187;51.010;13.792;2023-03-01T19:13:43;101215.22;;;2.07;63.74
75604;BME280;64187;51.010;13.792;2023-03-01T19:18:46;101216.22;;;2.06;63.26
75604;BME280;64187;51.010;13.792;2023-03-01T19:23:49;101222.63;;;1.63;64.89
75604;BME280;64187;51.010;13.792;2023-03-01T19:28:48;101219.72;;;2.07;64.18
75604;BME280;64187;51.010;13.792;2023-03-01T19:33:47;101227.59;;;2.25;63.43
75604;BME280;64187;51.010;13.792;2023-03-01T19:38:46;101215.56;;;2.04;63.73
75604;BME280;64187;51.010;13.792;2023-03-01T19:43:45;101211.59;;;1.58;65.58
75604;BME280;64187;51.010;13.792;2023-03-01T19:48:44;101202.16;;;1.96;63.95
75604;BME280;64187;51.010;13.792;2023-03-01T19:53:44;101211.88;;;1.97;64.14
75604;BME280;64187;51.010;13.792;2023-03-01T19:58:44;101214.72;;;2.04;63.62
75604;BME280;64187;51.010;13.792;2023-03-01T20:03:47;101216.44;;;1.54;64.79
75604;BME280;64187;51.010;13.792;2023-03-01T20:08:47;101223.16;;;1.32;66.21
75604;BME280;64187;51.010;13.792;2023-03-01T20:13:46;101232.88;;;1.07;66.50
75604;BME280;64187;51.010;13.792;2023-03-01T20:18:45;101219.00;;;1.03;67.40
75604;BME280;64187;51.010;13.792;2023-03-01T20:23:45;101219.69;;;1.05;66.86
75604;BME280;64187;51.010;13.792;2023-03-01T20:28:49;101221.94;;;1.26;66.60
75604;BME280;64187;51.010;13.792;2023-03-01T20:33:48;101225.34;;;1.02;67.74
75604;BME280;64187;51.010;13.792;2023-03-01T20:38:47;101223.03;;;0.81;67.57
75604;BME280;64187;51.010;13.792;2023-03-01T20:43:46;101213.94;;;0.66;67.57
75604;BME280;64187;51.010;13.792;2023-03-01T20:48:52;101205.06;;;1.10;66.91
75604;BME280;64187;51.010;13.792;2023-03-01T20:53:51;101198.44;;;1.22;65.71
75604;BME280;64187;51.010;13.792;2023-03-01T20:58:50;101209.44;;;0.93;67.68
75604;BME280;64187;51.010;13.792;2023-03-01T21:03:50;101214.34;;;0.79;67.31
75604;BME280;64187;51.010;13.792;2023-03-01T21:08:49;101211.44;;;0.47;68.16
75604;BME280;64187;51.010;13.792;2023-03-01T21:13:53;101209.63;;;0.99;66.69
75604;BME280;64187;51.010;13.792;2023-03-01T21:18:52;101198.47;;;0.70;67.36
75604;BME280;64187;51.010;13.792;2023-03-01T21:23:52;101200.41;;;0.85;67.08
75604;BME280;64187;51.010;13.792;2023-03-01T21:28:57;101197.34;;;0.54;68.36
75604;BME280;64187;51.010;13.792;2023-03-01T21:33:57;101192.53;;;0.14;69.49
75604;BME280;64187;51.010;13.792;2023-03-01T21:38:58;101198.22;;;0.37;68.62
75604;BME280;64187;51.010;13.792;2023-03-01T21:44:00;101197.44;;;0.62;68.11
75604;BME280;64187;51.010;13.792;2023-03-01T21:49:00;101195.38;;;0.56;68.26
75604;BME280;64187;51.010;13.792;2023-03-01T21:54:02;101186.81;;;0.27;69.29
75604;BME280;64187;51.010;13.792;2023-03-01T21:59:01;101183.72;;;0.13;69.71
75604;BME280;64187;51.010;13.792;2023-03-01T22:04:00;101178.13;;;0.25;69.05
75604;BME280;64187;51.010;13.792;2023-03-01T22:09:17;101178.38;;;0.13;69.97
75604;BME280;64187;51.010;13.792;2023-03-01T22:14:17;101168.88;;;0.29;68.91
75604;BME280;64187;51.010;13.792;2023-03-01T22:19:17;101164.22;;;0.57;68.48
75604;BME280;64187;51.010;13.792;2023-03-01T22:24:18;101157.03;;;0.49;68.06
75604;BME280;64187;51.010;13.792;2023-03-01T22:29:25;101164.75;;;0.16;68.32
75604;BME280;64187;51.010;13.792;2023-03-01T22:34:24;101159.69;;;0.49;68.00
75604;BME280;64187;51.010;13.792;2023-03-01T22:39:23;101171.69;;;-0.09;69.84
75604;BME280;64187;51.010;13.792;2023-03-01T22:44:23;101170.09;;;-0.19;69.61
75604;BME280;64187;51.010;13.792;2023-03-01T22:49:22;101171.25;;;-0.22;70.37
75604;BME280;64187;51.010;13.792;2023-03-01T22:54:21;101167.50;;;-0.11;69.49
75604;BME280;64187;51.010;13.792;2023-03-01T22:59:21;101158.44;;;-0.36;70.92
75604;BME280;64187;51.010;13.792;2023-03-01T23:04:23;101164.72;;;-0.10;69.31
75604;BME280;64187;51.010;13.792;2023-03-01T23:09:27;101160.66;;;-0.32;70.21
75604;BME280;64187;51.010;13.792;2023-03-01T23:14:29;101166.06;;;-0.24;69.77
75604;BME280;64187;51.010;13.792;2023-03-01T23:19:29;101170.81;;;-0.45;70.48
75604;BME280;64187;51.010;13.792;2023-03-01T23:24:28;101164.72;;;-0.55;70.72
75604;BME280;64187;51.010;13.792;2023-03-01T23:29:31;101164.72;;;-0.83;71.91
75604;BME280;64187;51.010;13.792;2023-03-01T23:34:30;101171.94;;;-0.48;70.91
75604;BME280;64187;51.010;13.792;2023-03-01T23:39:29;101169.25;;;-0.20;69.79
75604;BME280;64187;51.010;13.792;2023-03-01T23:44:29;101164.63;;;-0.91;71.93
75604;BME280;64187;51.010;13.792;2023-03-01T23:49:28;101162.38;;;-0.40;70.12
75604;BME280;64187;51.010;13.792;2023-03-01T23:54:27;101170.03;;;-0.55;70.45
75604;BME280;64187;51.010;13.792;2023-03-01T23:59:27;101165.59;;;-0.37;69.19
